createdAt,value
2022-11-30T00:00:39.001Z,5.80
2022-11-30T00:03:11.145Z,5.80
2022-11-30T00:05:41.005Z,5.90
2022-11-30T00:08:11.859Z,5.80
2022-11-30T00:10:46.490Z,5.80
2022-11-30T00:13:23.449Z,5.80
2022-11-30T00:16:06.079Z,5.70
2022-11-30T00:18:33.261Z,5.70
2022-11-30T00:21:03.210Z,5.70
2022-11-30T00:23:45.428Z,5.70
2022-11-30T00:26:22.503Z,5.60
2022-11-30T00:32:51.845Z,5.60
2022-11-30T00:35:21.445Z,5.60
2022-11-30T00:37:54.981Z,5.60
2022-11-30T00:40:26.007Z,5.60
2022-11-30T00:42:53.225Z,5.60
2022-11-30T00:45:23.028Z,5.60
2022-11-30T00:47:59.293Z,5.60
2022-11-30T00:50:31.659Z,5.60
2022-11-30T00:52:58.607Z,5.60
2022-11-30T00:55:38.969Z,5.70
2022-11-30T00:58:07.527Z,5.60
2022-11-30T01:00:36.772Z,5.60
2022-11-30T01:03:03.808Z,5.70
2022-11-30T01:05:35.288Z,5.70
2022-11-30T01:08:02.953Z,5.70
2022-11-30T01:10:31.957Z,5.70
2022-11-30T01:12:58.895Z,5.70
2022-11-30T01:15:25.905Z,5.60
2022-11-30T01:18:02.720Z,5.60
2022-11-30T01:20:33.806Z,5.60
2022-11-30T01:23:00.847Z,5.60
2022-11-30T01:25:27.958Z,5.60
2022-11-30T01:27:57.813Z,5.60
2022-11-30T01:30:28.001Z,5.70
2022-11-30T01:33:00.266Z,5.70
2022-11-30T01:35:27.368Z,5.60
2022-11-30T01:37:54.407Z,5.60
2022-11-30T01:40:25.811Z,5.60
2022-11-30T01:42:55.949Z,5.50
2022-11-30T01:45:28.515Z,5.50
2022-11-30T01:48:00.725Z,5.50
2022-11-30T01:50:37.293Z,5.50
2022-11-30T01:53:10.910Z,5.50
2022-11-30T01:55:43.025Z,5.50
2022-11-30T01:58:15.474Z,5.50
2022-11-30T02:00:52.261Z,5.50
2022-11-30T02:03:30.227Z,5.40
2022-11-30T02:05:57.430Z,5.40
2022-11-30T02:08:27.348Z,5.40
2022-11-30T02:11:05.430Z,5.50
2022-11-30T02:13:50.011Z,5.40
2022-11-30T02:16:17.014Z,5.50
2022-11-30T02:18:44.288Z,5.50
2022-11-30T02:21:20.649Z,5.50
2022-11-30T02:23:56.072Z,5.50
2022-11-30T02:26:46.136Z,5.40
2022-11-30T02:29:13.234Z,5.40
2022-11-30T02:31:58.977Z,5.40
2022-11-30T02:34:33.363Z,5.40
2022-11-30T02:37:10.699Z,5.40
2022-11-30T02:39:49.696Z,5.50
2022-11-30T02:42:35.451Z,5.50
2022-11-30T02:45:02.945Z,5.40
2022-11-30T02:48:06.589Z,5.40
2022-11-30T02:50:43.931Z,5.50
2022-11-30T02:53:13.950Z,5.40
2022-11-30T02:55:49.786Z,5.50
2022-11-30T02:58:29.859Z,5.40
2022-11-30T03:00:59.892Z,5.40
2022-11-30T03:03:26.831Z,5.40
2022-11-30T03:06:04.393Z,5.30
2022-11-30T03:08:44.446Z,5.30
2022-11-30T03:11:11.491Z,5.40
2022-11-30T03:13:38.432Z,5.50
2022-11-30T03:16:16.485Z,5.50
2022-11-30T03:19:08.365Z,5.40
2022-11-30T03:21:35.514Z,5.40
2022-11-30T03:24:10.266Z,5.40
2022-11-30T03:26:39.663Z,5.40
2022-11-30T03:33:11.843Z,5.40
2022-11-30T03:35:52.111Z,5.40
2022-11-30T03:38:22.014Z,5.40
2022-11-30T03:40:51.165Z,5.40
2022-11-30T03:43:30.759Z,5.40
2022-11-30T03:46:09.968Z,5.40
2022-11-30T03:48:47.808Z,5.40
2022-11-30T03:51:14.936Z,5.30
2022-11-30T03:53:41.981Z,5.30
2022-11-30T03:56:14.351Z,5.30
2022-11-30T03:58:47.978Z,5.30
2022-11-30T04:01:24.983Z,5.30
2022-11-30T04:03:59.378Z,5.30
2022-11-30T04:06:32.849Z,5.40
2022-11-30T04:09:04.338Z,5.40
2022-11-30T04:11:40.106Z,5.40
2022-11-30T04:14:13.162Z,5.30
2022-11-30T04:16:45.005Z,5.30
2022-11-30T04:19:19.000Z,5.30
2022-11-30T04:21:55.011Z,5.30
2022-11-30T04:24:26.056Z,5.30
2022-11-30T04:26:55.572Z,5.30
2022-11-30T04:29:33.012Z,5.40
2022-11-30T04:32:07.892Z,5.40
2022-11-30T04:34:34.950Z,5.40
2022-11-30T04:37:05.174Z,5.50
2022-11-30T04:39:37.654Z,5.50
2022-11-30T04:42:10.076Z,5.50
2022-11-30T04:44:41.252Z,5.50
2022-11-30T04:47:12.244Z,5.50
2022-11-30T04:49:42.362Z,5.50
2022-11-30T04:52:12.532Z,5.50
2022-11-30T04:54:41.956Z,5.50
2022-11-30T04:57:11.306Z,5.40
2022-11-30T04:59:43.285Z,5.40
2022-11-30T05:02:10.570Z,5.40
2022-11-30T05:04:39.947Z,5.40
2022-11-30T05:07:13.254Z,5.40
2022-11-30T05:09:45.782Z,5.30
2022-11-30T05:12:15.024Z,5.40
2022-11-30T05:14:48.435Z,5.20
2022-11-30T05:17:21.800Z,5.30
2022-11-30T05:19:51.183Z,5.20
2022-11-30T05:22:21.369Z,5.30
2022-11-30T05:24:51.247Z,5.30
2022-11-30T05:27:22.497Z,5.30
2022-11-30T05:29:54.209Z,5.30
2022-11-30T05:32:26.733Z,5.30
2022-11-30T05:34:56.394Z,5.40
2022-11-30T05:37:35.421Z,5.40
2022-11-30T05:40:04.859Z,5.30
2022-11-30T05:42:35.307Z,5.30
2022-11-30T05:45:08.293Z,5.30
2022-11-30T05:47:40.772Z,5.30
2022-11-30T05:50:14.284Z,5.30
2022-11-30T05:52:44.833Z,5.30
2022-11-30T05:55:14.844Z,5.30
2022-11-30T05:57:51.065Z,5.30
2022-11-30T06:00:20.873Z,5.40
2022-11-30T06:02:50.806Z,5.40
2022-11-30T06:05:26.950Z,5.40
2022-11-30T06:08:10.587Z,5.40
2022-11-30T06:10:41.013Z,5.40
2022-11-30T06:13:13.378Z,5.40
2022-11-30T06:15:42.996Z,5.40
2022-11-30T06:18:11.638Z,5.40
2022-11-30T06:20:41.250Z,5.40
2022-11-30T06:23:12.024Z,5.40
2022-11-30T06:25:41.779Z,5.40
2022-11-30T06:28:13.900Z,5.30
2022-11-30T06:30:46.540Z,5.30
2022-11-30T06:33:16.387Z,5.30
2022-11-30T06:35:46.987Z,5.30
2022-11-30T06:38:25.230Z,5.30
2022-11-30T06:40:56.281Z,5.30
2022-11-30T06:43:31.584Z,5.30
2022-11-30T06:46:01.858Z,5.40
2022-11-30T06:48:29.792Z,5.40
2022-11-30T06:50:57.222Z,5.30
2022-11-30T06:53:30.045Z,5.30
2022-11-30T06:56:09.977Z,5.30
2022-11-30T06:58:44.408Z,5.30
2022-11-30T07:01:13.238Z,5.30
2022-11-30T07:03:49.429Z,5.30
2022-11-30T07:06:19.898Z,5.30
2022-11-30T07:08:52.476Z,5.30
2022-11-30T07:11:23.313Z,5.30
2022-11-30T07:13:50.542Z,5.30
2022-11-30T07:16:20.298Z,5.30
2022-11-30T07:18:47.932Z,5.30
2022-11-30T07:21:15.478Z,5.30
2022-11-30T07:24:01.973Z,5.40
2022-11-30T07:26:33.629Z,5.40
2022-11-30T07:29:00.988Z,5.40
2022-11-30T07:31:32.175Z,5.40
2022-11-30T07:34:02.887Z,5.40
2022-11-30T07:36:32.938Z,5.40
2022-11-30T07:39:05.353Z,5.40
2022-11-30T07:41:32.668Z,5.40
2022-11-30T07:44:11.424Z,5.40
2022-11-30T07:46:41.454Z,5.40
2022-11-30T07:49:11.993Z,5.50
2022-11-30T07:51:42.312Z,5.50
2022-11-30T07:54:15.076Z,5.50
2022-11-30T07:56:45.417Z,5.40
2022-11-30T07:59:12.741Z,5.40
2022-11-30T08:01:42.704Z,5.40
2022-11-30T08:04:18.315Z,5.50
2022-11-30T08:06:50.386Z,5.50
2022-11-30T08:09:20.712Z,5.50
2022-11-30T08:11:51.162Z,5.50
2022-11-30T08:14:23.439Z,5.50
2022-11-30T08:16:53.151Z,5.50
2022-11-30T08:19:22.727Z,5.60
2022-11-30T08:21:49.878Z,5.60
2022-11-30T08:24:19.625Z,5.60
2022-11-30T08:26:52.085Z,5.60
2022-11-30T08:29:19.160Z,5.60
2022-11-30T08:31:57.904Z,5.60
2022-11-30T08:34:32.081Z,5.70
2022-11-30T08:36:59.223Z,5.70
2022-11-30T08:39:35.869Z,5.70
2022-11-30T08:42:10.179Z,5.70
2022-11-30T08:44:51.060Z,5.70
2022-11-30T08:47:35.904Z,5.70
2022-11-30T08:50:07.821Z,5.70
2022-11-30T08:52:42.716Z,5.70
2022-11-30T08:55:13.066Z,5.70
2022-11-30T08:57:54.828Z,5.80
2022-11-30T09:00:33.135Z,5.80
2022-11-30T09:03:07.411Z,5.80
2022-11-30T09:05:40.275Z,5.80
2022-11-30T09:08:07.688Z,5.80
2022-11-30T09:10:43.346Z,5.70
2022-11-30T09:13:16.471Z,5.80
2022-11-30T09:15:56.422Z,5.80
2022-11-30T09:18:35.041Z,5.80
2022-11-30T09:21:08.514Z,5.90
2022-11-30T09:23:35.991Z,5.90
2022-11-30T09:26:15.231Z,5.90
2022-11-30T09:28:52.510Z,5.80
2022-11-30T09:31:27.682Z,5.80
2022-11-30T09:34:03.305Z,5.80
2022-11-30T09:36:31.066Z,5.80
2022-11-30T09:39:17.867Z,5.80
2022-11-30T09:41:48.178Z,5.90
2022-11-30T09:44:28.330Z,5.90
2022-11-30T09:47:27.443Z,5.90
2022-11-30T09:49:59.099Z,6.00
2022-11-30T09:52:34.846Z,6.00
2022-11-30T09:55:18.502Z,6.10
2022-11-30T09:57:50.879Z,6.10
2022-11-30T10:00:24.241Z,6.10
2022-11-30T10:02:55.274Z,6.10
2022-11-30T10:05:35.632Z,6.20
2022-11-30T10:08:22.589Z,6.20
2022-11-30T10:11:01.676Z,6.20
2022-11-30T10:13:40.009Z,6.30
2022-11-30T10:16:15.081Z,6.30
2022-11-30T10:18:58.163Z,6.30
2022-11-30T10:22:02.151Z,6.40
2022-11-30T10:24:37.747Z,6.40
2022-11-30T10:27:35.208Z,6.50
2022-11-30T10:30:30.704Z,6.50
2022-11-30T10:33:00.337Z,6.60
2022-11-30T10:35:35.101Z,6.60
2022-11-30T10:38:12.080Z,6.60
2022-11-30T10:40:40.389Z,6.60
2022-11-30T10:43:34.678Z,6.60
2022-11-30T10:46:10.248Z,6.50
2022-11-30T10:48:47.720Z,6.60
2022-11-30T10:51:30.353Z,6.60
2022-11-30T10:53:58.630Z,6.60
2022-11-30T10:56:27.673Z,6.60
2022-11-30T10:58:58.330Z,6.60
2022-11-30T11:01:37.324Z,6.60
2022-11-30T11:04:19.623Z,6.70
2022-11-30T11:06:59.311Z,6.70
2022-11-30T11:09:51.755Z,6.70
2022-11-30T11:12:27.322Z,6.70
2022-11-30T11:18:29.062Z,6.80
2022-11-30T11:21:07.415Z,6.80
2022-11-30T11:23:38.042Z,6.80
2022-11-30T11:26:30.343Z,6.70
2022-11-30T11:29:02.616Z,6.70
2022-11-30T11:31:47.351Z,6.70
2022-11-30T11:34:37.163Z,6.70
2022-11-30T11:37:05.238Z,6.70
2022-11-30T11:39:39.349Z,6.80
2022-11-30T11:42:19.145Z,6.80
2022-11-30T11:44:54.632Z,6.80
2022-11-30T11:47:45.142Z,6.80
2022-11-30T11:50:12.602Z,6.80
2022-11-30T11:52:40.058Z,6.90
2022-11-30T11:55:10.387Z,6.90
2022-11-30T11:57:46.792Z,7.00
2022-11-30T12:00:19.849Z,7.00
2022-11-30T12:03:30.513Z,7.00
2022-11-30T12:06:05.522Z,7.00
2022-11-30T12:08:45.184Z,6.90
2022-11-30T12:11:25.854Z,6.90
2022-11-30T12:13:57.630Z,6.90
2022-11-30T12:16:30.903Z,7.00
2022-11-30T12:18:58.164Z,7.00
2022-11-30T12:21:54.713Z,6.90
2022-11-30T12:24:50.011Z,6.90
2022-11-30T12:27:42.563Z,6.90
2022-11-30T12:30:42.480Z,6.90
2022-11-30T12:33:18.635Z,7.00
2022-11-30T12:36:08.040Z,7.00
2022-11-30T12:38:37.416Z,7.00
2022-11-30T12:41:11.524Z,7.00
2022-11-30T12:43:47.979Z,7.00
2022-11-30T12:46:23.398Z,7.00
2022-11-30T12:49:06.304Z,6.90
2022-11-30T12:52:01.165Z,6.80
2022-11-30T12:54:49.658Z,6.90
2022-11-30T12:57:34.474Z,6.90
2022-11-30T13:00:10.735Z,6.90
2022-11-30T13:02:52.127Z,6.90
2022-11-30T13:05:35.978Z,7.00
2022-11-30T13:08:20.013Z,7.00
2022-11-30T13:10:58.537Z,6.90
2022-11-30T13:13:33.924Z,6.90
2022-11-30T13:16:03.542Z,6.90
2022-11-30T13:18:34.945Z,6.90
2022-11-30T13:21:11.556Z,6.90
2022-11-30T13:23:48.182Z,6.80
2022-11-30T13:26:31.515Z,6.70
2022-11-30T13:29:02.149Z,6.70
2022-11-30T13:31:38.226Z,6.70
2022-11-30T13:41:07.765Z,6.60
2022-11-30T13:43:47.777Z,6.50
2022-11-30T13:46:18.512Z,6.50
2022-11-30T13:48:57.791Z,6.40
2022-11-30T13:51:35.536Z,6.50
2022-11-30T13:54:28.191Z,6.50
2022-11-30T13:56:58.747Z,6.40
2022-11-30T13:59:29.067Z,6.30
2022-11-30T14:02:17.954Z,6.30
2022-11-30T14:04:46.654Z,6.30
2022-11-30T14:07:38.276Z,6.20
2022-11-30T14:10:27.634Z,6.10
2022-11-30T14:13:26.412Z,6.00
2022-11-30T14:16:03.359Z,6.00
2022-11-30T14:18:41.222Z,5.90
2022-11-30T14:21:31.571Z,5.70
2022-11-30T14:24:18.004Z,5.70
2022-11-30T14:26:52.724Z,5.60
2022-11-30T14:29:23.247Z,5.50
2022-11-30T14:32:21.728Z,5.40
2022-11-30T14:34:53.577Z,5.30
2022-11-30T14:37:22.253Z,5.20
2022-11-30T14:39:50.086Z,5.10
2022-11-30T14:42:38.390Z,5.10
2022-11-30T14:45:45.165Z,5.00
2022-11-30T14:48:24.998Z,4.80
2022-11-30T14:51:14.304Z,4.80
2022-11-30T14:53:47.083Z,4.80
2022-11-30T14:56:50.058Z,4.90
2022-11-30T14:59:35.184Z,4.90
2022-11-30T15:02:13.819Z,4.70
2022-11-30T15:04:43.970Z,4.60
2022-11-30T15:07:25.237Z,4.60
2022-11-30T15:13:03.255Z,4.50
2022-11-30T15:15:31.486Z,4.50
2022-11-30T15:17:59.852Z,4.40
2022-11-30T15:20:39.573Z,4.20
2022-11-30T15:23:20.064Z,4.20
2022-11-30T15:25:57.531Z,4.20
2022-11-30T15:28:35.286Z,4.10
2022-11-30T15:31:12.391Z,4.00
2022-11-30T15:33:53.182Z,4.00
2022-11-30T15:39:23.319Z,3.90
2022-11-30T15:42:12.275Z,3.90
2022-11-30T15:44:48.991Z,3.90
2022-11-30T15:47:36.380Z,3.90
2022-11-30T15:50:29.315Z,3.90
2022-11-30T15:53:03.703Z,3.90
2022-11-30T15:55:57.524Z,3.90
2022-11-30T15:58:37.678Z,3.80
2022-11-30T16:01:18.746Z,3.90
2022-11-30T16:04:04.236Z,3.80
2022-11-30T16:06:48.492Z,3.70
2022-11-30T16:09:23.083Z,3.60
2022-11-30T16:11:57.307Z,3.60
2022-11-30T16:14:27.192Z,3.60
2022-11-30T16:16:59.218Z,3.50
2022-11-30T16:19:37.067Z,3.50
2022-11-30T16:22:08.863Z,3.50
2022-11-30T16:24:38.482Z,3.60
2022-11-30T16:27:32.257Z,3.60
2022-11-30T16:30:06.303Z,3.60
2022-11-30T16:32:45.954Z,3.70
2022-11-30T16:35:26.483Z,3.60
2022-11-30T16:37:59.113Z,3.60
2022-11-30T16:40:32.700Z,3.50
2022-11-30T16:43:10.193Z,3.50
2022-11-30T16:45:46.368Z,3.50
2022-11-30T16:48:16.887Z,3.50
2022-11-30T16:50:44.906Z,3.60
2022-11-30T16:53:26.100Z,3.60
2022-11-30T16:55:58.189Z,3.70
2022-11-30T16:58:28.162Z,3.70
2022-11-30T17:01:00.603Z,3.70
2022-11-30T17:03:31.840Z,3.80
2022-11-30T17:06:03.192Z,3.80
2022-11-30T17:08:33.617Z,3.90
2022-11-30T17:11:03.574Z,3.80
2022-11-30T17:13:33.482Z,3.80
2022-11-30T17:16:00.581Z,3.70
2022-11-30T17:18:27.784Z,3.70
2022-11-30T17:21:00.880Z,3.80
2022-11-30T17:23:28.125Z,3.70
2022-11-30T17:25:58.083Z,3.70
2022-11-30T17:28:29.237Z,3.70
2022-11-30T17:30:59.868Z,3.70
2022-11-30T17:33:35.878Z,3.60
2022-11-30T17:36:08.527Z,3.60
2022-11-30T17:38:35.985Z,3.60
2022-11-30T17:41:11.036Z,3.60
2022-11-30T17:43:43.531Z,3.60
2022-11-30T17:46:22.657Z,3.60
2022-11-30T17:48:52.958Z,3.60
2022-11-30T17:51:20.245Z,3.60
2022-11-30T17:53:47.970Z,3.60
2022-11-30T17:56:19.014Z,3.60
2022-11-30T17:58:52.408Z,3.70
2022-11-30T18:01:21.508Z,3.70
2022-11-30T18:03:51.997Z,3.70
2022-11-30T18:06:19.590Z,3.70
2022-11-30T18:08:53.609Z,3.80
2022-11-30T18:11:23.825Z,3.70
2022-11-30T18:13:54.674Z,3.60
2022-11-30T18:16:24.373Z,3.60
2022-11-30T18:18:52.156Z,3.60
2022-11-30T18:21:25.485Z,3.60
2022-11-30T18:24:03.342Z,3.70
2022-11-30T18:26:31.021Z,3.60
2022-11-30T18:29:17.200Z,3.60
2022-11-30T18:31:56.650Z,3.50
2022-11-30T18:34:29.859Z,3.50
2022-11-30T18:36:59.945Z,3.60
2022-11-30T18:39:32.341Z,3.50
2022-11-30T18:41:59.824Z,3.60
2022-11-30T18:44:29.390Z,3.60
2022-11-30T18:46:58.997Z,3.60
2022-11-30T18:49:26.457Z,3.60
2022-11-30T18:51:57.392Z,3.60
2022-11-30T18:54:30.796Z,3.60
2022-11-30T18:56:59.168Z,3.60
2022-11-30T18:59:31.747Z,3.60
2022-11-30T19:02:02.514Z,3.60
2022-11-30T19:04:32.592Z,3.60
2022-11-30T19:07:13.783Z,3.60
2022-11-30T19:09:52.653Z,3.70
2022-11-30T19:12:22.357Z,3.70
2022-11-30T19:14:52.030Z,3.70
2022-11-30T19:17:24.510Z,3.70
2022-11-30T19:20:03.156Z,3.60
2022-11-30T19:22:47.144Z,3.60
2022-11-30T19:25:19.186Z,3.60
2022-11-30T19:27:54.170Z,3.60
2022-11-30T19:30:25.692Z,3.60
2022-11-30T19:32:57.280Z,3.50
2022-11-30T19:35:25.356Z,3.60
2022-11-30T19:37:55.878Z,3.70
2022-11-30T19:40:25.688Z,3.60
2022-11-30T19:43:00.150Z,3.60
2022-11-30T19:45:39.447Z,3.50
2022-11-30T19:48:07.010Z,3.50
2022-11-30T19:50:37.623Z,3.50
2022-11-30T19:53:05.992Z,3.50
2022-11-30T19:55:44.648Z,3.60
2022-11-30T19:58:16.908Z,3.60
2022-11-30T20:00:45.995Z,3.60
2022-11-30T20:03:20.372Z,3.60
2022-11-30T20:05:52.870Z,3.60
2022-11-30T20:08:25.343Z,3.60
2022-11-30T20:11:01.530Z,3.60
2022-11-30T20:13:30.418Z,3.60
2022-11-30T20:15:57.925Z,3.50
2022-11-30T20:18:34.262Z,3.60
2022-11-30T20:21:26.691Z,3.60
2022-11-30T20:24:06.336Z,3.70
2022-11-30T20:26:44.738Z,3.60
2022-11-30T20:29:33.980Z,3.60
2022-11-30T20:32:06.282Z,3.60
2022-11-30T20:34:43.881Z,3.60
2022-11-30T20:37:12.671Z,3.50
2022-11-30T20:39:46.048Z,3.50
2022-11-30T20:42:29.085Z,3.60
2022-11-30T20:44:56.450Z,3.60
2022-11-30T20:47:26.176Z,3.60
2022-11-30T20:49:56.477Z,3.60
2022-11-30T20:52:23.935Z,3.50
2022-11-30T20:54:59.158Z,3.40
2022-11-30T20:57:33.799Z,3.30
2022-11-30T21:00:02.093Z,3.30
2022-11-30T21:02:46.671Z,3.30
2022-11-30T21:05:15.315Z,3.40
2022-11-30T21:07:42.417Z,3.40
2022-11-30T21:10:12.795Z,3.40
2022-11-30T21:12:47.143Z,3.30
2022-11-30T21:15:21.221Z,3.20
2022-11-30T21:17:55.785Z,3.20
2022-11-30T21:20:25.432Z,3.20
2022-11-30T21:22:57.002Z,3.20
2022-11-30T21:25:24.182Z,3.20
2022-11-30T21:27:55.416Z,3.20
2022-11-30T21:30:22.531Z,3.20
2022-11-30T21:32:53.056Z,3.20
2022-11-30T21:35:22.304Z,3.20
2022-11-30T21:38:00.275Z,3.20
2022-11-30T21:40:27.452Z,3.10
2022-11-30T21:42:54.466Z,3.10
2022-11-30T21:45:24.005Z,3.10
2022-11-30T21:47:55.065Z,3.10
2022-11-30T21:50:27.025Z,3.10
2022-11-30T21:53:11.286Z,3.00
2022-11-30T21:55:55.871Z,3.00
2022-11-30T21:58:28.887Z,3.00
2022-11-30T22:00:59.966Z,3.10
2022-11-30T22:03:32.318Z,3.10
2022-11-30T22:06:05.259Z,3.10
2022-11-30T22:08:34.941Z,3.10
2022-11-30T22:11:14.854Z,3.10
2022-11-30T22:13:42.604Z,3.00
2022-11-30T22:16:13.456Z,3.10
2022-11-30T22:18:44.618Z,3.10
2022-11-30T22:21:17.939Z,3.10
2022-11-30T22:24:07.848Z,3.00
2022-11-30T22:26:40.297Z,3.10
2022-11-30T22:29:14.306Z,3.10
2022-11-30T22:31:44.774Z,3.20
2022-11-30T22:34:16.702Z,3.20
2022-11-30T22:36:50.099Z,3.20
2022-11-30T22:39:27.679Z,3.10
2022-11-30T22:42:00.076Z,3.10
2022-11-30T22:44:33.248Z,3.20
2022-11-30T22:47:05.232Z,3.20
2022-11-30T22:49:35.015Z,3.10
2022-11-30T22:52:04.652Z,3.10
2022-11-30T22:54:31.825Z,3.10
2022-11-30T22:57:08.148Z,3.10
2022-11-30T22:59:38.259Z,3.10
2022-11-30T23:02:10.329Z,3.20
2022-11-30T23:04:45.585Z,3.10
2022-11-30T23:07:17.084Z,3.20
2022-11-30T23:09:52.064Z,3.10
2022-11-30T23:12:50.849Z,3.20
2022-11-30T23:15:11.157Z,3.20
2022-11-30T23:17:43.221Z,3.20
2022-11-30T23:20:15.568Z,3.10
2022-11-30T23:22:48.580Z,3.00
2022-11-30T23:25:20.987Z,3.00
2022-11-30T23:27:50.389Z,3.00
2022-11-30T23:30:22.950Z,2.90
2022-11-30T23:32:59.078Z,3.00
2022-11-30T23:35:36.895Z,3.00
2022-11-30T23:38:04.105Z,3.00
2022-11-30T23:40:36.165Z,3.00
2022-11-30T23:43:07.542Z,3.00
2022-11-30T23:45:37.637Z,3.00
2022-11-30T23:48:10.534Z,3.00
2022-11-30T23:50:44.841Z,3.00
2022-11-30T23:53:12.041Z,2.90
2022-11-30T23:55:42.368Z,2.80
2022-11-30T23:58:15.661Z,2.90
